sensor_id;sensor_type;location;lat;lon;timestamp;pressure;altitude;pressure_sealevel;temperature;humidity
76478;BME280;65309;49.790;18.972;2024-03-23T00:54:39;59992.94;;;-145.46;77.70
76478;BME280;65309;49.790;18.972;2024-03-23T00:59:41;59995.03;;;-145.46;77.52
76478;BME280;65309;49.790;18.972;2024-03-23T01:04:42;59982.41;;;-145.46;75.96
76478;BME280;65309;49.790;18.972;2024-03-23T01:09:44;59961.41;;;-145.46;76.90
76478;BME280;65309;49.790;18.972;2024-03-23T01:14:45;59948.78;;;-145.46;75.08
76478;BME280;65309;49.790;18.972;2024-03-23T01:19:46;59976.13;;;-145.46;77.39
76478;BME280;65309;49.790;18.972;2024-03-23T01:24:49;59982.41;;;-145.46;76.86
76478;BME280;65309;49.790;18.972;2024-03-23T01:29:50;59995.03;;;-145.46;77.81
76478;BME280;65309;49.790;18.972;2024-03-23T01:34:53;59988.72;;;-145.46;77.23
76478;BME280;65309;49.790;18.972;2024-03-23T01:39:55;59965.59;;;-145.46;76.27
76478;BME280;65309;49.790;18.972;2024-03-23T01:44:57;60007.66;;;-145.46;77.28
76478;BME280;65309;49.790;18.972;2024-03-23T01:49:58;60005.53;;;-145.46;77.43
76478;BME280;65309;49.790;18.972;2024-03-23T01:55:00;59969.81;;;-145.46;77.70
76478;BME280;65309;49.790;18.972;2024-03-23T02:00:02;59974.00;;;-145.46;77.51
76478;BME280;65309;49.790;18.972;2024-03-23T02:05:04;59963.50;;;-145.46;77.38
76478;BME280;65309;49.790;18.972;2024-03-23T02:10:07;60049.69;;;-145.46;77.68
76478;BME280;65309;49.790;18.972;2024-03-23T02:15:09;59986.63;;;-145.46;77.20
76478;BME280;65309;49.790;18.972;2024-03-23T02:20:12;59995.03;;;-145.46;77.31
76478;BME280;65309;49.790;18.972;2024-03-23T02:25:14;59995.03;;;-145.46;75.79
76478;BME280;65309;49.790;18.972;2024-03-23T02:30:15;60005.53;;;-145.46;75.66
76478;BME280;65309;49.790;18.972;2024-03-23T02:35:17;59986.63;;;-145.46;75.29
76478;BME280;65309;49.790;18.972;2024-03-23T02:40:20;59997.13;;;-145.46;74.83
76478;BME280;65309;49.790;18.972;2024-03-23T02:45:21;59999.22;;;-145.46;73.72
76478;BME280;65309;49.790;18.972;2024-03-23T02:50:23;59982.41;;;-145.46;76.41
76478;BME280;65309;49.790;18.972;2024-03-23T02:55:25;59978.22;;;-145.46;77.41
76478;BME280;65309;49.790;18.972;2024-03-23T03:00:27;59990.81;;;-145.46;75.82
76478;BME280;65309;49.790;18.972;2024-03-23T03:05:28;59995.03;;;-145.46;75.63
76478;BME280;65309;49.790;18.972;2024-03-23T03:10:30;59986.63;;;-145.46;74.45
76478;BME280;65309;49.790;18.972;2024-03-23T03:15:35;59969.81;;;-145.46;75.70
76478;BME280;65309;49.790;18.972;2024-03-23T03:20:38;59982.41;;;-145.46;75.24
76478;BME280;65309;49.790;18.972;2024-03-23T03:25:41;59976.13;;;-145.46;74.66
76478;BME280;65309;49.790;18.972;2024-03-23T03:30:42;59974.00;;;-145.46;75.71
76478;BME280;65309;49.790;18.972;2024-03-23T03:35:44;59967.69;;;-145.46;76.56
76478;BME280;65309;49.790;18.972;2024-03-23T03:40:47;59978.22;;;-145.46;78.50
76478;BME280;65309;49.790;18.972;2024-03-23T03:45:51;59990.81;;;-145.46;77.88
76478;BME280;65309;49.790;18.972;2024-03-23T03:50:53;59955.09;;;-145.46;78.15
76478;BME280;65309;49.790;18.972;2024-03-23T03:55:55;59969.81;;;-145.46;77.13
76478;BME280;65309;49.790;18.972;2024-03-23T04:00:56;59990.81;;;-145.46;77.91
76478;BME280;65309;49.790;18.972;2024-03-23T04:05:58;59976.13;;;-145.46;77.44
76478;BME280;65309;49.790;18.972;2024-03-23T04:11:00;59967.69;;;-145.46;77.67
76478;BME280;65309;49.790;18.972;2024-03-23T04:16:01;60011.84;;;-145.46;76.79
76478;BME280;65309;49.790;18.972;2024-03-23T04:21:03;59980.31;;;-145.46;76.74
76478;BME280;65309;49.790;18.972;2024-03-23T04:26:06;60022.34;;;-145.46;79.18
76478;BME280;65309;49.790;18.972;2024-03-23T04:31:07;59965.59;;;-145.46;79.89
76478;BME280;65309;49.790;18.972;2024-03-23T04:36:08;59978.22;;;-145.46;81.32
76478;BME280;65309;49.790;18.972;2024-03-23T04:41:11;59961.41;;;-145.46;82.82
76478;BME280;65309;49.790;18.972;2024-03-23T04:46:12;59982.41;;;-145.46;84.45
76478;BME280;65309;49.790;18.972;2024-03-23T04:51:20;60022.34;;;-145.46;83.89
76478;BME280;65309;49.790;18.972;2024-03-23T04:56:26;59974.00;;;-145.46;83.24
76478;BME280;65309;49.790;18.972;2024-03-23T05:01:28;59974.00;;;-145.46;80.22
76478;BME280;65309;49.790;18.972;2024-03-23T05:06:29;59971.91;;;-145.46;76.66
76478;BME280;65309;49.790;18.972;2024-03-23T05:11:32;59982.41;;;-145.46;78.23
76478;BME280;65309;49.790;18.972;2024-03-23T05:16:33;59999.22;;;-145.46;77.20
76478;BME280;65309;49.790;18.972;2024-03-23T05:21:34;59986.63;;;-145.46;77.81
76478;BME280;65309;49.790;18.972;2024-03-23T05:26:37;59995.03;;;-145.46;78.29
76478;BME280;65309;49.790;18.972;2024-03-23T05:31:38;59953.00;;;-145.46;76.34
76478;BME280;65309;49.790;18.972;2024-03-23T05:36:39;59910.94;;;-145.46;77.86
76478;BME280;65309;49.790;18.972;2024-03-23T05:41:42;59969.81;;;-145.46;75.12
76478;BME280;65309;49.790;18.972;2024-03-23T05:46:43;59921.47;;;-145.46;72.28
76478;BME280;65309;49.790;18.972;2024-03-23T05:51:49;59969.81;;;-145.46;70.71
76478;BME280;65309;49.790;18.972;2024-03-23T05:56:54;59978.22;;;-145.46;71.43
76478;BME280;65309;49.790;18.972;2024-03-23T06:01:55;59971.91;;;-145.46;71.25
76478;BME280;65309;49.790;18.972;2024-03-23T06:06:56;59953.00;;;-145.46;69.56
76478;BME280;65309;49.790;18.972;2024-03-23T06:12:00;59934.06;;;-145.46;66.69
76478;BME280;65309;49.790;18.972;2024-03-23T06:17:01;59944.56;;;-145.46;68.03
76478;BME280;65309;49.790;18.972;2024-03-23T06:22:02;59986.63;;;-145.46;68.52
76478;BME280;65309;49.790;18.972;2024-03-23T06:27:05;59984.53;;;-145.46;70.15
76478;BME280;65309;49.790;18.972;2024-03-23T06:32:06;59936.16;;;-145.46;71.15
76478;BME280;65309;49.790;18.972;2024-03-23T06:37:07;59953.00;;;-145.46;71.75
76478;BME280;65309;49.790;18.972;2024-03-23T06:42:12;59950.88;;;-145.46;72.36
76478;BME280;65309;49.790;18.972;2024-03-23T06:47:13;59963.50;;;-145.46;74.18
76478;BME280;65309;49.790;18.972;2024-03-23T06:52:14;59950.88;;;-145.46;74.69
76478;BME280;65309;49.790;18.972;2024-03-23T06:57:17;60001.34;;;-145.46;72.26
76478;BME280;65309;49.790;18.972;2024-03-23T07:02:18;59944.56;;;-145.46;70.82
76478;BME280;65309;49.790;18.972;2024-03-23T07:07:19;59950.88;;;-145.46;68.57
76478;BME280;65309;49.790;18.972;2024-03-23T07:12:22;59957.19;;;-145.46;66.84
76478;BME280;65309;49.790;18.972;2024-03-23T07:17:23;59929.88;;;-145.46;65.66
76478;BME280;65309;49.790;18.972;2024-03-23T07:22:24;59915.16;;;-145.46;66.81
76478;BME280;65309;49.790;18.972;2024-03-23T07:27:26;59936.16;;;-145.46;64.63
76478;BME280;65309;49.790;18.972;2024-03-23T07:32:27;59913.03;;;-145.46;65.53
76478;BME280;65309;49.790;18.972;2024-03-23T07:37:29;59948.78;;;-145.46;66.43
76478;BME280;65309;49.790;18.972;2024-03-23T07:42:31;59950.88;;;-145.46;66.77
76478;BME280;65309;49.790;18.972;2024-03-23T07:47:32;59934.06;;;-145.46;65.10
76478;BME280;65309;49.790;18.972;2024-03-23T07:52:34;59923.56;;;-145.46;64.15
76478;BME280;65309;49.790;18.972;2024-03-23T07:57:36;59917.25;;;-145.46;61.93
76478;BME280;65309;49.790;18.972;2024-03-23T08:02:37;59913.03;;;-145.46;63.23
76478;BME280;65309;49.790;18.972;2024-03-23T08:07:38;59969.81;;;-145.46;61.49
76478;BME280;65309;49.790;18.972;2024-03-23T08:12:41;59946.69;;;-145.46;60.55
76478;BME280;65309;49.790;18.972;2024-03-23T08:17:42;59944.56;;;-145.46;63.16
76478;BME280;65309;49.790;18.972;2024-03-23T08:22:46;59898.34;;;-145.46;60.95
76478;BME280;65309;49.790;18.972;2024-03-23T08:27:48;59896.22;;;-145.46;62.02
76478;BME280;65309;49.790;18.972;2024-03-23T08:32:49;59929.88;;;-145.46;62.85
76478;BME280;65309;49.790;18.972;2024-03-23T08:37:53;59906.75;;;-145.46;62.75
76478;BME280;65309;49.790;18.972;2024-03-23T08:42:55;59940.38;;;-145.46;63.07
76478;BME280;65309;49.790;18.972;2024-03-23T08:47:57;59915.16;;;-145.46;62.44
76478;BME280;65309;49.790;18.972;2024-03-23T08:52:58;59892.03;;;-145.46;59.02
76478;BME280;65309;49.790;18.972;2024-03-23T08:58:00;59885.72;;;-145.46;59.15
76478;BME280;65309;49.790;18.972;2024-03-23T09:03:01;59906.75;;;-145.46;59.39
76478;BME280;65309;49.790;18.972;2024-03-23T09:08:04;59898.34;;;-145.46;55.19
76478;BME280;65309;49.790;18.972;2024-03-23T09:13:07;59906.75;;;-145.46;53.87
76478;BME280;65309;49.790;18.972;2024-03-23T09:18:09;59885.72;;;-145.46;52.10
76478;BME280;65309;49.790;18.972;2024-03-23T09:23:10;59921.47;;;-145.46;50.54
76478;BME280;65309;49.790;18.972;2024-03-23T09:28:12;59913.03;;;-145.46;48.90
76478;BME280;65309;49.790;18.972;2024-03-23T09:33:13;59881.50;;;-145.46;49.24
76478;BME280;65309;49.790;18.972;2024-03-23T09:38:15;59873.09;;;-145.46;51.54
76478;BME280;65309;49.790;18.972;2024-03-23T09:43:17;59906.75;;;-145.46;51.35
76478;BME280;65309;49.790;18.972;2024-03-23T09:48:19;59919.34;;;-145.46;51.02
76478;BME280;65309;49.790;18.972;2024-03-23T09:53:20;59902.53;;;-145.46;50.82
76478;BME280;65309;49.790;18.972;2024-03-23T09:58:24;59910.94;;;-145.46;52.92
76478;BME280;65309;49.790;18.972;2024-03-23T10:03:26;59917.25;;;-145.46;53.95
76478;BME280;65309;49.790;18.972;2024-03-23T10:08:28;59894.13;;;-145.46;52.26
76478;BME280;65309;49.790;18.972;2024-03-23T10:13:31;59940.38;;;-145.46;52.71
76478;BME280;65309;49.790;18.972;2024-03-23T10:18:37;59892.03;;;-145.46;51.12
76478;BME280;65309;49.790;18.972;2024-03-23T10:23:39;59940.38;;;-145.46;51.87
76478;BME280;65309;49.790;18.972;2024-03-23T10:28:53;59904.63;;;-145.46;50.84
76478;BME280;65309;49.790;18.972;2024-03-23T10:33:54;59906.75;;;-145.46;51.55
76478;BME280;65309;49.790;18.972;2024-03-23T10:38:56;59871.00;;;-145.46;51.67
76478;BME280;65309;49.790;18.972;2024-03-23T10:44:01;59873.09;;;-145.46;50.56
76478;BME280;65309;49.790;18.972;2024-03-23T10:49:03;59917.25;;;-145.46;50.83
76478;BME280;65309;49.790;18.972;2024-03-23T10:54:06;59898.34;;;-145.46;50.91
76478;BME280;65309;49.790;18.972;2024-03-23T10:59:09;59900.44;;;-145.46;50.23
76478;BME280;65309;49.790;18.972;2024-03-23T11:04:29;59892.03;;;-145.46;52.72
76478;BME280;65309;49.790;18.972;2024-03-23T11:09:40;59948.78;;;-145.46;54.26
76478;BME280;65309;49.790;18.972;2024-03-23T11:14:46;59938.28;;;-145.46;50.62
76478;BME280;65309;49.790;18.972;2024-03-23T11:19:53;59915.16;;;-145.46;50.89
76478;BME280;65309;49.790;18.972;2024-03-23T11:24:57;59936.16;;;-145.46;50.93
76478;BME280;65309;49.790;18.972;2024-03-23T11:30:14;59908.84;;;-145.46;52.56
76478;BME280;65309;49.790;18.972;2024-03-23T11:35:26;59902.53;;;-145.46;49.86
76478;BME280;65309;49.790;18.972;2024-03-23T11:40:30;59894.13;;;-145.46;48.83
76478;BME280;65309;49.790;18.972;2024-03-23T11:45:37;59908.84;;;-145.46;47.82
76478;BME280;65309;49.790;18.972;2024-03-23T11:50:41;59894.13;;;-145.46;47.00
76478;BME280;65309;49.790;18.972;2024-03-23T11:55:45;59919.34;;;-145.46;46.54
76478;BME280;65309;49.790;18.972;2024-03-23T12:00:52;59864.69;;;-145.46;46.78
76478;BME280;65309;49.790;18.972;2024-03-23T12:05:54;59898.34;;;-145.46;46.25
76478;BME280;65309;49.790;18.972;2024-03-23T12:11:04;59889.94;;;-145.46;48.08
76478;BME280;65309;49.790;18.972;2024-03-23T12:16:11;59892.03;;;-145.46;45.92
76478;BME280;65309;49.790;18.972;2024-03-23T12:21:13;59923.56;;;-145.46;47.38
76478;BME280;65309;49.790;18.972;2024-03-23T12:26:14;59900.44;;;-145.46;48.23
76478;BME280;65309;49.790;18.972;2024-03-23T12:31:18;59910.94;;;-145.46;47.09
76478;BME280;65309;49.790;18.972;2024-03-23T12:36:19;59860.50;;;-145.46;45.27
76478;BME280;65309;49.790;18.972;2024-03-23T12:41:20;59856.28;;;-145.46;44.68
76478;BME280;65309;49.790;18.972;2024-03-23T12:46:23;59881.50;;;-145.46;44.46
76478;BME280;65309;49.790;18.972;2024-03-23T12:51:24;59871.00;;;-145.46;44.47
76478;BME280;65309;49.790;18.972;2024-03-23T12:56:25;59883.63;;;-145.46;44.41
76478;BME280;65309;49.790;18.972;2024-03-23T13:01:30;59860.50;;;-145.46;45.96
76478;BME280;65309;49.790;18.972;2024-03-23T13:06:31;59843.69;;;-145.46;44.18
76478;BME280;65309;49.790;18.972;2024-03-23T13:11:35;59906.75;;;-145.46;44.87
76478;BME280;65309;49.790;18.972;2024-03-23T13:16:38;59881.50;;;-145.46;41.81
76478;BME280;65309;49.790;18.972;2024-03-23T13:21:39;59877.31;;;-145.46;40.89
76478;BME280;65309;49.790;18.972;2024-03-23T13:26:40;59915.16;;;-145.46;42.46
76478;BME280;65309;49.790;18.972;2024-03-23T13:31:43;59948.78;;;-145.46;42.14
76478;BME280;65309;49.790;18.972;2024-03-23T13:36:44;59902.53;;;-145.46;44.49
76478;BME280;65309;49.790;18.972;2024-03-23T13:41:46;59908.84;;;-145.46;45.06
76478;BME280;65309;49.790;18.972;2024-03-23T13:46:49;59910.94;;;-145.46;43.68
76478;BME280;65309;49.790;18.972;2024-03-23T13:51:50;59885.72;;;-145.46;44.28
76478;BME280;65309;49.790;18.972;2024-03-23T13:56:51;59898.34;;;-145.46;77.14
76478;BME280;65309;49.790;18.972;2024-03-23T14:01:54;59904.63;;;-145.46;100.00
76478;BME280;65309;49.790;18.972;2024-03-23T14:06:55;59919.34;;;-145.46;100.00
76478;BME280;65309;49.790;18.972;2024-03-23T14:11:56;59944.56;;;-145.46;100.00
76478;BME280;65309;49.790;18.972;2024-03-23T14:16:59;59965.59;;;-145.46;100.00
76478;BME280;65309;49.790;18.972;2024-03-23T14:22:00;59923.56;;;-145.46;100.00
76478;BME280;65309;49.790;18.972;2024-03-23T14:27:03;59969.81;;;-145.46;100.00
76478;BME280;65309;49.790;18.972;2024-03-23T14:32:07;59990.81;;;-145.46;100.00
76478;BME280;65309;49.790;18.972;2024-03-23T14:37:08;59995.03;;;-145.46;100.00
76478;BME280;65309;49.790;18.972;2024-03-23T14:42:10;59990.81;;;-145.46;100.00
76478;BME280;65309;49.790;18.972;2024-03-23T14:47:12;59992.94;;;-145.46;100.00
76478;BME280;65309;49.790;18.972;2024-03-23T14:52:14;59999.22;;;-145.46;100.00
76478;BME280;65309;49.790;18.972;2024-03-23T14:57:15;59982.41;;;-145.46;100.00
76478;BME280;65309;49.790;18.972;2024-03-23T15:02:17;60003.44;;;-145.46;100.00
76478;BME280;65309;49.790;18.972;2024-03-23T15:07:19;60003.44;;;-145.46;100.00
76478;BME280;65309;49.790;18.972;2024-03-23T15:12:20;59978.22;;;-145.46;100.00
76478;BME280;65309;49.790;18.972;2024-03-23T15:17:24;60037.06;;;-145.46;100.00
76478;BME280;65309;49.790;18.972;2024-03-23T15:22:25;60024.47;;;-145.46;100.00
76478;BME280;65309;49.790;18.972;2024-03-23T15:27:26;59980.31;;;-145.46;100.00
76478;BME280;65309;49.790;18.972;2024-03-23T15:32:28;59999.22;;;-145.46;100.00
76478;BME280;65309;49.790;18.972;2024-03-23T15:37:31;60020.25;;;-145.46;98.51
76478;BME280;65309;49.790;18.972;2024-03-23T15:42:32;60007.66;;;-145.46;97.09
76478;BME280;65309;49.790;18.972;2024-03-23T15:47:35;59969.81;;;-145.46;94.77
76478;BME280;65309;49.790;18.972;2024-03-23T15:52:37;59978.22;;;-145.46;92.40
76478;BME280;65309;49.790;18.972;2024-03-23T15:57:39;59969.81;;;-145.46;92.49
76478;BME280;65309;49.790;18.972;2024-03-23T16:02:42;59986.63;;;-145.46;91.50
76478;BME280;65309;49.790;18.972;2024-03-23T16:07:43;59961.41;;;-145.46;92.10
76478;BME280;65309;49.790;18.972;2024-03-23T16:12:45;59976.13;;;-145.46;87.14
76478;BME280;65309;49.790;18.972;2024-03-23T16:17:48;59965.59;;;-145.46;87.88
76478;BME280;65309;49.790;18.972;2024-03-23T16:22:49;59999.22;;;-145.46;89.64
76478;BME280;65309;49.790;18.972;2024-03-23T16:27:50;59990.81;;;-145.46;92.82
76478;BME280;65309;49.790;18.972;2024-03-23T16:32:53;59990.81;;;-145.46;94.72
76478;BME280;65309;49.790;18.972;2024-03-23T16:37:54;59936.16;;;-145.46;96.73
76478;BME280;65309;49.790;18.972;2024-03-23T16:42:55;59953.00;;;-145.46;98.16
76478;BME280;65309;49.790;18.972;2024-03-23T16:47:58;59986.63;;;-145.46;95.44
76478;BME280;65309;49.790;18.972;2024-03-23T16:52:59;60022.34;;;-145.46;96.42
76478;BME280;65309;49.790;18.972;2024-03-23T16:58:01;60005.53;;;-145.46;98.74
76478;BME280;65309;49.790;18.972;2024-03-23T17:03:04;59986.63;;;-145.46;100.00
76478;BME280;65309;49.790;18.972;2024-03-23T17:08:06;59974.00;;;-145.46;98.50
76478;BME280;65309;49.790;18.972;2024-03-23T17:13:07;59982.41;;;-145.46;93.43
76478;BME280;65309;49.790;18.972;2024-03-23T17:18:10;59978.22;;;-145.46;91.53
76478;BME280;65309;49.790;18.972;2024-03-23T17:23:11;60020.25;;;-145.46;92.41
76478;BME280;65309;49.790;18.972;2024-03-23T17:28:13;59980.31;;;-145.46;100.00
76478;BME280;65309;49.790;18.972;2024-03-23T17:33:16;59995.03;;;-145.46;100.00
76478;BME280;65309;49.790;18.972;2024-03-23T17:38:22;59974.00;;;-145.46;100.00
76478;BME280;65309;49.790;18.972;2024-03-23T17:43:23;60011.84;;;-145.46;100.00
76478;BME280;65309;49.790;18.972;2024-03-23T17:48:27;60058.09;;;-145.46;100.00
76478;BME280;65309;49.790;18.972;2024-03-23T17:53:28;59988.72;;;-145.46;100.00
76478;BME280;65309;49.790;18.972;2024-03-23T17:58:29;59982.41;;;-145.46;100.00
76478;BME280;65309;49.790;18.972;2024-03-23T18:03:32;59995.03;;;-145.46;100.00
76478;BME280;65309;49.790;18.972;2024-03-23T18:08:33;60018.16;;;-145.46;100.00
76478;BME280;65309;49.790;18.972;2024-03-23T18:13:34;60016.06;;;-145.46;100.00
76478;BME280;65309;49.790;18.972;2024-03-23T18:18:37;60024.47;;;-145.46;100.00
76478;BME280;65309;49.790;18.972;2024-03-23T18:23:38;60032.88;;;-145.46;100.00
76478;BME280;65309;49.790;18.972;2024-03-23T18:28:39;60005.53;;;-145.46;100.00
76478;BME280;65309;49.790;18.972;2024-03-23T18:33:42;60045.47;;;-145.46;100.00
76478;BME280;65309;49.790;18.972;2024-03-23T18:38:43;60013.94;;;-145.46;100.00
76478;BME280;65309;49.790;18.972;2024-03-23T18:43:46;60011.84;;;-145.46;100.00
76478;BME280;65309;49.790;18.972;2024-03-23T18:48:49;60041.28;;;-145.46;100.00
76478;BME280;65309;49.790;18.972;2024-03-23T18:53:50;60032.88;;;-145.46;100.00
76478;BME280;65309;49.790;18.972;2024-03-23T18:58:52;60016.06;;;-145.46;100.00
76478;BME280;65309;49.790;18.972;2024-03-23T19:03:55;60020.25;;;-145.46;100.00
76478;BME280;65309;49.790;18.972;2024-03-23T19:08:56;60028.66;;;-145.46;100.00
76478;BME280;65309;49.790;18.972;2024-03-23T19:13:57;60041.28;;;-145.46;100.00
76478;BME280;65309;49.790;18.972;2024-03-23T19:19:00;60028.66;;;-145.46;100.00
76478;BME280;65309;49.790;18.972;2024-03-23T19:24:01;60009.75;;;-145.46;100.00
76478;BME280;65309;49.790;18.972;2024-03-23T19:29:02;60030.78;;;-145.46;100.00
76478;BME280;65309;49.790;18.972;2024-03-23T19:34:08;59995.03;;;-145.46;100.00
76478;BME280;65309;49.790;18.972;2024-03-23T19:39:09;60041.28;;;-145.46;100.00
76478;BME280;65309;49.790;18.972;2024-03-23T19:44:13;60016.06;;;-145.46;100.00
76478;BME280;65309;49.790;18.972;2024-03-23T19:49:15;59984.53;;;-145.46;100.00
76478;BME280;65309;49.790;18.972;2024-03-23T19:54:16;60039.19;;;-145.46;100.00
76478;BME280;65309;49.790;18.972;2024-03-23T19:59:18;60020.25;;;-145.46;100.00
76478;BME280;65309;49.790;18.972;2024-03-23T20:04:20;60020.25;;;-145.46;100.00
76478;BME280;65309;49.790;18.972;2024-03-23T20:09:21;59999.22;;;-145.46;100.00
76478;BME280;65309;49.790;18.972;2024-03-23T20:14:24;60028.66;;;-145.46;100.00
76478;BME280;65309;49.790;18.972;2024-03-23T20:19:26;60070.72;;;-145.46;100.00
76478;BME280;65309;49.790;18.972;2024-03-23T20:24:29;60066.50;;;-145.46;100.00
76478;BME280;65309;49.790;18.972;2024-03-23T20:29:31;60024.47;;;-145.46;100.00
76478;BME280;65309;49.790;18.972;2024-03-23T20:34:33;59995.03;;;-145.46;100.00
76478;BME280;65309;49.790;18.972;2024-03-23T20:39:34;60051.78;;;-145.46;100.00
76478;BME280;65309;49.790;18.972;2024-03-23T20:44:36;60053.91;;;-145.46;100.00
76478;BME280;65309;49.790;18.972;2024-03-23T20:49:38;60007.66;;;-145.46;100.00
76478;BME280;65309;49.790;18.972;2024-03-23T20:54:39;60018.16;;;-145.46;100.00
76478;BME280;65309;49.790;18.972;2024-03-23T20:59:41;59992.94;;;-145.46;100.00
76478;BME280;65309;49.790;18.972;2024-03-23T21:04:43;60028.66;;;-145.46;100.00
76478;BME280;65309;49.790;18.972;2024-03-23T21:09:45;60032.88;;;-145.46;100.00
76478;BME280;65309;49.790;18.972;2024-03-23T21:14:46;60016.06;;;-145.46;100.00
76478;BME280;65309;49.790;18.972;2024-03-23T21:19:49;60007.66;;;-145.46;100.00
76478;BME280;65309;49.790;18.972;2024-03-23T21:24:50;60032.88;;;-145.46;100.00
76478;BME280;65309;49.790;18.972;2024-03-23T21:29:51;60043.38;;;-145.46;100.00
76478;BME280;65309;49.790;18.972;2024-03-23T21:34:54;60024.47;;;-145.46;100.00
76478;BME280;65309;49.790;18.972;2024-03-23T21:39:55;60043.38;;;-145.46;100.00
76478;BME280;65309;49.790;18.972;2024-03-23T21:44:57;60028.66;;;-145.46;100.00
76478;BME280;65309;49.790;18.972;2024-03-23T21:49:59;59999.22;;;-145.46;100.00
76478;BME280;65309;49.790;18.972;2024-03-23T21:55:00;60043.38;;;-145.46;100.00
76478;BME280;65309;49.790;18.972;2024-03-23T22:00:02;60053.91;;;-145.46;100.00
76478;BME280;65309;49.790;18.972;2024-03-23T22:05:05;60009.75;;;-145.46;100.00
76478;BME280;65309;49.790;18.972;2024-03-23T22:10:07;60022.34;;;-145.46;100.00
76478;BME280;65309;49.790;18.972;2024-03-23T22:15:09;60003.44;;;-145.46;100.00
76478;BME280;65309;49.790;18.972;2024-03-23T22:20:11;60043.38;;;-145.46;100.00
76478;BME280;65309;49.790;18.972;2024-03-23T22:25:13;60022.34;;;-145.46;100.00
76478;BME280;65309;49.790;18.972;2024-03-23T22:30:15;60045.47;;;-145.46;100.00
76478;BME280;65309;49.790;18.972;2024-03-23T22:35:17;59999.22;;;-145.46;100.00
76478;BME280;65309;49.790;18.972;2024-03-23T22:40:19;60020.25;;;-145.46;100.00
76478;BME280;65309;49.790;18.972;2024-03-23T22:45:20;60034.97;;;-145.46;100.00
76478;BME280;65309;49.790;18.972;2024-03-23T22:50:23;60056.00;;;-145.46;100.00
76478;BME280;65309;49.790;18.972;2024-03-23T22:55:24;60011.84;;;-145.46;100.00
76478;BME280;65309;49.790;18.972;2024-03-23T23:00:25;60060.19;;;-145.46;100.00
76478;BME280;65309;49.790;18.972;2024-03-23T23:05:28;60077.00;;;-145.46;100.00
76478;BME280;65309;49.790;18.972;2024-03-23T23:10:29;60026.56;;;-145.46;100.00
76478;BME280;65309;49.790;18.972;2024-03-23T23:15:30;60032.88;;;-145.46;100.00
76478;BME280;65309;49.790;18.972;2024-03-23T23:20:33;60070.72;;;-145.46;100.00
76478;BME280;65309;49.790;18.972;2024-03-23T23:25:34;60045.47;;;-145.46;100.00
76478;BME280;65309;49.790;18.972;2024-03-23T23:30:36;60051.78;;;-145.46;100.00
76478;BME280;65309;49.790;18.972;2024-03-23T23:35:38;60034.97;;;-145.46;100.00
76478;BME280;65309;49.790;18.972;2024-03-23T23:40:39;60089.63;;;-145.46;100.00
76478;BME280;65309;49.790;18.972;2024-03-23T23:45:40;60062.31;;;-145.46;100.00
76478;BME280;65309;49.790;18.972;2024-03-23T23:50:43;60039.19;;;-145.46;100.00
76478;BME280;65309;49.790;18.972;2024-03-23T23:55:44;60049.69;;;-145.46;100.00
